Time;durP1;ratioP1;P1;durP2;ratioP2;P2;SDS_P1;SDS_P2;PMS_P1;PMS_P2;Temp;Humidity;BMP_temperature;BMP_pressure;BME280_temperature;BME280_humidity;BME280_pressure;Samples;Min_cycle;Max_cycle;Signal;HPM_P1;HPM_P2
2022/08/02 00:00:27;;;;;;;8.60;5.20;;;;;;;27.00;52.54;100350.03;2103465;28;20184;-78
2022/08/02 00:01:48;;;;;;;11.48;5.45;;;;;;;27.00;52.93;100370.81;2104908;28;20056;-78
2022/08/02 00:03:12;;;;;;;7.88;4.95;;;;;;;26.98;52.80;100362.78;2102731;28;20083;-78
2022/08/02 00:04:34;;;;;;;10.50;5.20;;;;;;;26.96;53.05;100367.44;2102930;28;20075;-78
2022/08/02 00:05:55;;;;;;;9.25;5.78;;;;;;;26.94;53.07;100364.81;2102314;28;20151;-79
2022/08/02 00:07:18;;;;;;;12.25;6.25;;;;;;;26.92;53.15;100364.00;2102979;28;20043;-78
2022/08/02 00:08:39;;;;;;;8.57;5.63;;;;;;;26.90;53.38;100370.50;2101518;28;20078;-77
2022/08/02 00:10:02;;;;;;;9.80;5.40;;;;;;;26.88;53.48;100367.84;2111233;28;20055;-78
2022/08/02 00:11:23;;;;;;;8.60;5.10;;;;;;;26.88;53.67;100367.84;2111662;28;20559;-77
2022/08/02 00:12:46;;;;;;;8.52;5.10;;;;;;;26.88;53.54;100375.09;2111759;28;20051;-77
2022/08/02 00:14:07;;;;;;;7.95;5.45;;;;;;;26.87;53.60;100373.34;2105594;28;20575;-77
2022/08/02 00:15:30;;;;;;;9.75;5.35;;;;;;;26.88;53.54;100372.38;2096799;28;20685;-77
2022/08/02 00:16:51;;;;;;;8.85;5.47;;;;;;;26.86;53.65;100361.63;2102750;28;20099;-77
2022/08/02 00:18:15;;;;;;;7.30;4.88;;;;;;;26.86;54.22;100374.31;2101857;28;20060;-77
2022/08/02 00:19:36;;;;;;;12.23;6.00;;;;;;;26.85;54.06;100376.13;2102795;28;20134;-77
2022/08/02 00:20:59;;;;;;;10.15;5.32;;;;;;;26.85;54.23;100373.41;2102096;28;20044;-77
2022/08/02 00:22:20;;;;;;;10.82;5.82;;;;;;;26.85;54.71;100370.72;2103075;28;20049;-78
2022/08/02 00:23:42;;;;;;;7.32;5.07;;;;;;;26.83;54.65;100372.66;2110886;28;20124;-77
2022/08/02 00:25:05;;;;;;;8.98;6.47;;;;;;;26.84;54.85;100371.69;2105014;28;20164;-78
2022/08/02 00:26:28;;;;;;;12.63;5.80;;;;;;;26.85;54.63;100380.69;2094302;28;20497;-77
2022/08/02 00:27:49;;;;;;;9.75;5.97;;;;;;;26.83;54.74;100369.94;2092325;28;20047;-77
2022/08/02 00:29:12;;;;;;;10.15;5.63;;;;;;;26.83;54.83;100372.66;2099612;28;20048;-77
2022/08/02 00:30:33;;;;;;;10.27;6.47;;;;;;;26.82;54.88;100373.63;2102358;28;20047;-77
2022/08/02 00:31:55;;;;;;;8.95;5.55;;;;;;;26.80;55.04;100367.41;2097354;28;20079;-77
2022/08/02 00:33:18;;;;;;;10.15;5.63;;;;;;;26.81;55.15;100371.88;2102113;28;20709;-78
2022/08/02 00:34:41;;;;;;;9.00;5.30;;;;;;;26.77;55.34;100370.31;2102695;28;20075;-77
2022/08/02 00:36:03;;;;;;;9.05;5.50;;;;;;;26.75;55.58;100369.50;2085971;28;20068;-78
2022/08/02 00:37:25;;;;;;;10.30;5.47;;;;;;;26.76;55.39;100373.09;2108231;27;20048;-78
2022/08/02 00:38:48;;;;;;;10.30;5.63;;;;;;;26.75;55.53;100363.22;2108807;28;20083;-78
2022/08/02 00:40:11;;;;;;;8.88;5.47;;;;;;;26.75;55.46;100371.34;2105328;28;20154;-77
2022/08/02 00:41:32;;;;;;;11.27;5.47;;;;;;;26.74;55.38;100370.47;2094385;28;20037;-77
2022/08/02 00:43:03;;;;;;;9.73;5.38;;;;;;;26.75;55.25;100372.22;2102406;28;20059;-77
2022/08/02 00:44:26;;;;;;;9.25;5.32;;;;;;;26.72;55.22;100368.78;2103377;28;20042;-78
2022/08/02 00:45:49;;;;;;;7.68;5.45;;;;;;;26.69;55.26;100369.88;2102403;28;20203;-77
2022/08/02 00:47:11;;;;;;;10.00;5.25;;;;;;;26.68;55.33;100369.94;2102743;28;20138;-78
2022/08/02 00:48:34;;;;;;;9.15;5.15;;;;;;;26.70;55.08;100368.03;2109295;28;20056;-77
2022/08/02 00:49:56;;;;;;;8.00;5.25;;;;;;;26.69;54.98;100372.56;2095818;28;20044;-77
2022/08/02 00:51:19;;;;;;;11.05;5.82;;;;;;;26.69;54.95;100367.16;2099958;28;20044;-78
2022/08/02 00:52:40;;;;;;;9.15;5.18;;;;;;;26.68;54.82;100376.25;2109548;28;20051;-78
2022/08/02 00:54:03;;;;;;;8.10;4.85;;;;;;;26.66;54.65;100371.84;2105224;28;20051;-77
2022/08/02 00:55:25;;;;;;;11.40;6.13;;;;;;;26.67;54.59;100376.31;2104806;28;20516;-77
2022/08/02 00:56:47;;;;;;;;;;;;;;;26.65;54.59;100370.13;2102952;28;20110;-78
2022/08/02 00:58:09;;;;;;;10.55;5.50;;;;;;;26.65;54.42;100370.97;2107016;28;20435;-78
2022/08/02 00:59:32;;;;;;;8.98;5.38;;;;;;;26.66;54.31;100378.16;2103801;28;20044;-77
2022/08/02 01:00:56;;;;;;;10.18;5.43;;;;;;;26.66;54.56;100380.84;2102165;28;20036;-77
2022/08/02 01:02:18;;;;;;;10.93;5.10;;;;;;;26.65;54.63;100370.97;2102466;28;20052;-78
2022/08/02 01:03:41;;;;;;;10.73;5.20;;;;;;;26.66;54.57;100372.75;2104853;28;20089;-78
2022/08/02 01:05:04;;;;;;;11.90;6.38;;;;;;;26.67;54.43;100373.63;2102176;28;20048;-77
2022/08/02 01:06:31;;;;;;;11.80;5.18;;;;;;;26.67;54.42;100368.19;2110860;28;20070;-78
2022/08/02 01:07:54;;;;;;;9.43;5.60;;;;;;;26.64;54.73;100369.25;2107159;28;20514;-77
2022/08/02 01:09:15;;;;;;;9.18;5.35;;;;;;;26.66;54.79;100367.31;2118758;27;20130;-78
2022/08/02 01:10:37;;;;;;;10.63;5.00;;;;;;;26.67;54.50;100371.78;2104540;28;20484;-78
2022/08/02 01:11:59;;;;;;;7.65;4.55;;;;;;;26.65;54.58;100370.97;2102290;28;20630;-78
2022/08/02 01:13:22;;;;;;;7.00;4.57;;;;;;;26.66;54.58;100372.75;2104717;28;20447;-77
2022/08/02 01:14:47;;;;;;;11.88;5.68;;;;;;;26.66;54.56;100375.44;2102428;28;20539;-77
2022/08/02 01:16:15;;;;;;;8.65;5.28;;;;;;;26.65;54.21;100367.44;2101731;28;20404;-78
2022/08/02 01:17:45;;;;;;;14.20;5.43;;;;;;;26.66;54.41;100371.84;2096353;28;20048;-78
2022/08/02 01:19:32;;;;;;;8.60;5.13;;;;;;;26.64;54.00;100374.69;2109302;28;20126;-78
2022/08/02 01:21:43;;;;;;;10.18;6.25;;;;;;;26.62;54.26;100373.88;2096537;28;20118;-78
2022/08/02 01:23:19;;;;;;;10.88;5.63;;;;;;;26.61;54.13;100373.97;2087725;28;20083;-78
2022/08/02 01:25:01;;;;;;;8.85;5.40;;;;;;;26.61;54.38;100368.53;2098248;28;20048;-77
2022/08/02 01:26:41;;;;;;;11.38;5.50;;;;;;;26.61;54.20;100376.66;2095825;28;20040;-77
2022/08/02 01:28:30;;;;;;;11.38;5.65;;;;;;;26.61;54.17;100373.97;2094706;28;20075;-76
2022/08/02 01:29:55;;;;;;;11.25;5.60;;;;;;;26.59;54.09;100374.91;2095984;28;20052;-77
2022/08/02 01:31:27;;;;;;;11.48;5.70;;;;;;;26.60;54.38;100378.50;2094157;28;20122;-77
2022/08/02 01:32:53;;;;;;;12.18;6.30;;;;;;;26.58;54.31;100378.59;2095334;28;20554;-77
2022/08/02 01:34:23;;;;;;;10.15;5.40;;;;;;;26.57;54.32;100379.56;2094512;28;20079;-77
2022/08/02 01:35:52;;;;;;;8.98;5.22;;;;;;;26.55;54.32;100386.91;2100834;28;20051;-78
2022/08/02 01:37:19;;;;;;;8.90;4.97;;;;;;;26.56;54.16;100385.06;2111397;28;20512;-78
2022/08/02 01:38:45;;;;;;;10.82;5.20;;;;;;;26.55;54.27;100388.72;2101893;28;20044;-77
2022/08/02 01:40:10;;;;;;;10.43;4.93;;;;;;;26.54;54.33;100389.69;2104474;28;20488;-77
2022/08/02 01:41:35;;;;;;;7.57;5.43;;;;;;;26.50;54.24;100378.16;2102299;28;20043;-78
2022/08/02 01:42:58;;;;;;;10.43;5.35;;;;;;;26.52;54.59;100388.88;2094073;28;20608;-79
2022/08/02 01:44:24;;;;;;;9.38;5.07;;;;;;;26.51;54.43;100385.34;2096595;28;20067;-78
2022/08/02 01:45:48;;;;;;;9.68;5.35;;;;;;;26.52;54.67;100386.19;2111094;28;20066;-77
2022/08/02 01:47:16;;;;;;;7.45;5.00;;;;;;;26.54;54.77;100385.16;2104357;28;20097;-77
2022/08/02 01:48:42;;;;;;;10.25;5.15;;;;;;;26.53;54.55;100377.97;2106364;28;20055;-78
2022/08/02 01:50:07;;;;;;;9.43;4.95;;;;;;;26.52;54.66;100386.19;2109022;28;20054;-78
2022/08/02 01:53:13;;;;;;;10.30;5.00;;;;;;;26.50;54.79;100374.59;2096446;28;20727;-77
2022/08/02 01:54:37;;;;;;;9.05;5.32;;;;;;;26.49;54.92;100378.25;2096763;28;20068;-77
2022/08/02 01:56:01;;;;;;;10.85;5.85;;;;;;;26.48;54.97;100371.94;2096533;28;20109;-78
2022/08/02 01:57:25;;;;;;;11.85;4.93;;;;;;;26.47;54.83;100370.19;2102212;28;20162;-77
2022/08/02 01:58:49;;;;;;;9.60;4.90;;;;;;;26.46;55.30;100371.16;2094066;28;20045;-78
2022/08/02 02:00:15;;;;;;;10.68;5.63;;;;;;;26.44;55.33;100367.69;2095577;28;20045;-77
2022/08/02 02:01:38;;;;;;;9.65;5.45;;;;;;;26.43;55.43;100365.06;2110760;28;20048;-77
2022/08/02 02:03:05;;;;;;;10.38;5.68;;;;;;;26.42;55.31;100369.59;2096472;28;20107;-78
2022/08/02 02:04:30;;;;;;;9.25;5.18;;;;;;;26.42;55.37;100371.44;2102892;28;20048;-78
2022/08/02 02:05:55;;;;;;;9.60;5.55;;;;;;;26.40;55.57;100365.22;2096005;28;20075;-78
2022/08/02 02:07:20;;;;;;;11.77;5.60;;;;;;;26.39;55.59;100360.75;2100072;28;20076;-78
2022/08/02 02:08:44;;;;;;;8.20;4.55;;;;;;;26.37;55.88;100366.28;2103595;28;20063;-78
2022/08/02 02:10:11;;;;;;;11.48;5.50;;;;;;;26.37;55.77;100362.69;2102384;28;20047;-78
2022/08/02 02:11:34;;;;;;;9.45;5.53;;;;;;;26.37;56.00;100366.28;2102274;28;20063;-77
2022/08/02 02:13:00;;;;;;;15.18;5.28;;;;;;;26.36;56.00;100361.81;2101939;28;20056;-77
2022/08/02 02:14:22;;;;;;;12.68;6.00;;;;;;;26.34;55.85;100362.84;2094238;28;20040;-78
2022/08/02 02:15:50;;;;;;;9.57;4.97;;;;;;;26.31;55.93;100355.78;2099291;28;20055;-78
2022/08/02 02:17:14;;;;;;;10.85;5.28;;;;;;;26.28;56.22;100366.78;2111265;28;20043;-78
2022/08/02 02:18:40;;;;;;;9.40;5.07;;;;;;;26.28;56.18;100366.78;2103609;28;20040;-77
2022/08/02 02:20:04;;;;;;;12.40;5.78;;;;;;;26.25;56.60;100366.09;2094606;28;20037;-77
2022/08/02 02:21:25;;;;;;;9.68;5.90;;;;;;;26.24;56.73;100362.50;2102416;28;20114;-77
2022/08/02 02:22:48;;;;;;;12.40;5.57;;;;;;;26.23;56.60;100368.84;2095069;28;20414;-78
2022/08/02 02:24:11;;;;;;;13.48;5.45;;;;;;;26.25;56.63;100371.50;2109126;28;20046;-78
2022/08/02 02:25:33;;;;;;;9.45;5.35;;;;;;;26.25;56.63;100366.09;2106196;28;20408;-77
2022/08/02 02:26:56;;;;;;;11.35;5.20;;;;;;;26.24;56.58;100367.91;2106104;28;20052;-78
2022/08/02 02:28:27;;;;;;;9.50;5.50;;;;;;;26.23;56.79;100367.97;2102640;28;20036;-77
2022/08/02 02:29:52;;;;;;;8.23;5.60;;;;;;;26.22;56.73;100374.31;2104997;28;20052;-77
2022/08/02 02:31:17;;;;;;;11.05;5.47;;;;;;;26.19;56.87;100370.81;2095468;28;20076;-78
2022/08/02 02:32:41;;;;;;;8.25;5.47;;;;;;;26.19;56.91;100370.81;2095572;28;20044;-77
2022/08/02 02:34:09;;;;;;;11.30;5.97;;;;;;;26.18;57.25;100363.69;2103918;28;20060;-78
2022/08/02 02:35:36;;;;;;;8.98;5.55;;;;;;;26.17;56.97;100370.06;2106430;28;20040;-78
2022/08/02 02:37:01;;;;;;;11.88;5.30;;;;;;;26.18;57.29;100365.53;2106132;28;20130;-79
2022/08/02 02:38:25;;;;;;;11.82;5.70;;;;;;;26.15;57.32;100374.66;2093108;28;20076;-78
2022/08/02 02:39:53;;;;;;;8.10;5.20;;;;;;;26.13;57.17;100373.88;2109511;28;20130;-78
2022/08/02 02:41:17;;;;;;;10.23;5.35;;;;;;;26.12;57.52;100376.69;2105900;28;20123;-78
2022/08/02 02:42:41;;;;;;;7.95;5.72;;;;;;;26.10;57.60;100373.19;2103932;28;20102;-78
2022/08/02 02:44:06;;;;;;;11.52;6.30;;;;;;;26.08;57.60;100367.84;2112319;28;20051;-78
2022/08/02 02:45:30;;;;;;;8.85;4.97;;;;;;;26.08;57.52;100375.09;2107738;28;20046;-77
2022/08/02 02:46:54;;;;;;;10.77;5.50;;;;;;;26.08;57.83;100367.84;2112161;28;20439;-77
2022/08/02 02:48:18;;;;;;;9.10;5.65;;;;;;;26.07;57.88;100368.78;2096546;28;20095;-77
2022/08/02 02:49:43;;;;;;;10.65;5.93;;;;;;;26.08;57.79;100375.09;2109492;28;20526;-77
2022/08/02 02:51:05;;;;;;;11.52;5.55;;;;;;;26.05;58.08;100376.16;2097945;28;20071;-77
2022/08/02 02:52:28;;;;;;;10.02;5.50;;;;;;;26.04;57.97;100377.09;2101032;28;20097;-78
2022/08/02 02:53:52;;;;;;;11.00;5.65;;;;;;;26.04;57.95;100376.22;2102549;28;20075;-78
2022/08/02 02:55:15;;;;;;;15.30;7.38;;;;;;;26.03;58.26;100372.63;2102702;28;20040;-78
2022/08/02 02:56:37;;;;;;;10.07;5.75;;;;;;;26.03;58.12;100379.88;2106068;28;20066;-78
2022/08/02 02:58:00;;;;;;;10.88;6.72;;;;;;;26.01;58.17;100377.25;2102491;28;20071;-78
2022/08/02 02:59:22;;;;;;;11.80;6.07;;;;;;;26.01;58.33;100368.25;2100643;28;20063;-78
2022/08/02 03:02:26;;;;;;;8.70;5.60;;;;;;;26.00;58.09;100375.50;2104272;28;20147;-77
2022/08/02 03:03:50;;;;;;;11.68;5.85;;;;;;;26.01;58.04;100374.53;2103535;28;20105;-78
2022/08/02 03:05:14;;;;;;;10.07;6.00;;;;;;;26.03;58.30;100382.59;2103386;28;20090;-77
2022/08/02 03:06:36;;;;;;;13.07;5.90;;;;;;;26.01;58.12;100379.97;2101510;28;20051;-77
2022/08/02 03:07:59;;;;;;;9.07;6.30;;;;;;;25.96;58.37;100378.47;2104121;28;20047;-78
2022/08/02 03:09:21;;;;;;;10.85;5.70;;;;;;;25.93;58.64;100378.66;2095181;28;20071;-78
2022/08/02 03:10:45;;;;;;;11.27;5.50;;;;;;;25.91;58.74;100383.25;2095056;28;20048;-78
2022/08/02 03:12:09;;;;;;;13.30;5.60;;;;;;;25.87;58.85;100377.13;2102343;28;20450;-77
2022/08/02 03:13:32;;;;;;;9.68;6.07;;;;;;;25.86;58.77;100383.50;2097775;28;20102;-78
2022/08/02 03:14:57;;;;;;;13.75;6.63;;;;;;;25.83;58.89;100378.25;2108640;28;20408;-78
2022/08/02 03:16:20;;;;;;;12.38;6.10;;;;;;;25.83;58.99;100375.53;2104797;28;20065;-77
2022/08/02 03:17:45;;;;;;;10.40;5.90;;;;;;;25.84;58.95;100377.31;2103370;28;20428;-77
2022/08/02 03:19:08;;;;;;;9.50;5.60;;;;;;;25.83;58.71;100380.94;2106045;28;20079;-78
2022/08/02 03:20:30;;;;;;;11.32;5.78;;;;;;;25.85;59.00;100389.00;2105816;28;20433;-78
2022/08/02 03:21:53;;;;;;;11.65;6.95;;;;;;;25.85;59.23;100384.47;2102875;28;20515;-78
2022/08/02 03:23:15;;;;;;;11.18;5.63;;;;;;;25.86;59.04;100386.22;2093457;28;20703;-77
2022/08/02 03:24:37;;;;;;;12.13;5.53;;;;;;;25.87;59.33;100376.25;2102831;28;20036;-77
2022/08/02 03:25:59;;;;;;;9.82;5.82;;;;;;;25.88;59.15;100383.41;2103307;28;20090;-77
2022/08/02 03:27:22;;;;;;;10.55;5.50;;;;;;;25.87;59.05;100382.53;2099986;28;20135;-77
2022/08/02 03:28:43;;;;;;;10.13;5.47;;;;;;;25.87;59.13;100381.66;2105926;28;20079;-77
2022/08/02 03:30:08;;;;;;;8.50;5.18;;;;;;;25.88;59.27;100378.00;2103148;28;20052;-77
2022/08/02 03:31:30;;;;;;;10.23;5.63;;;;;;;25.87;59.34;100385.22;2103396;28;20036;-77
2022/08/02 03:32:57;;;;;;;9.82;5.95;;;;;;;25.88;59.13;100384.28;2102965;28;20051;-77
2022/08/02 03:34:19;;;;;;;12.23;6.70;;;;;;;25.87;59.27;100382.53;2095395;28;20618;-77
2022/08/02 03:35:42;;;;;;;14.70;6.95;;;;;;;25.88;59.18;100386.09;2103178;28;20135;-77
2022/08/02 03:37:05;;;;;;;10.50;6.32;;;;;;;25.86;59.32;100386.22;2103466;28;20051;-77
2022/08/02 03:38:30;;;;;;;9.65;5.47;;;;;;;25.86;59.40;100385.34;2102492;28;20048;-77
2022/08/02 03:39:53;;;;;;;15.57;7.00;;;;;;;25.87;59.17;100387.06;2103314;28;20051;-77
2022/08/02 03:41:18;;;;;;;9.57;5.70;;;;;;;25.91;59.34;100380.56;2103222;28;20070;-77
2022/08/02 03:42:41;;;;;;;9.95;5.50;;;;;;;25.94;59.31;100386.66;2095234;28;20377;-77
2022/08/02 03:44:04;;;;;;;10.77;5.80;;;;;;;25.98;59.47;100385.56;2099709;28;20075;-77
2022/08/02 03:45:26;;;;;;;12.88;6.18;;;;;;;26.02;59.22;100386.25;2103276;28;20056;-78
2022/08/02 03:46:49;;;;;;;9.43;5.35;;;;;;;26.05;59.49;100397.78;2097539;28;20095;-78
2022/08/02 03:48:13;;;;;;;8.40;5.03;;;;;;;26.10;59.41;100390.28;2099723;28;20040;-79
2022/08/02 03:49:36;;;;;;;20.98;6.15;;;;;;;26.17;59.35;100390.84;2105645;28;20145;-78
2022/08/02 03:50:59;;;;;;;11.25;5.80;;;;;;;26.25;59.14;100398.56;2103391;28;20157;-77
2022/08/02 03:52:23;;;;;;;9.75;5.72;;;;;;;26.34;59.03;100395.34;2094530;28;20048;-77
2022/08/02 03:53:45;;;;;;;8.85;5.03;;;;;;;26.41;58.75;100391.34;2102989;28;20090;-78
2022/08/02 03:55:07;;;;;;;10.02;4.95;;;;;;;26.49;58.69;100397.19;2107958;28;20036;-78
2022/08/02 03:56:31;;;;;;;10.48;5.20;;;;;;;26.56;58.51;100404.03;2102807;28;20442;-78
2022/08/02 03:57:52;;;;;;;7.30;4.95;;;;;;;26.62;58.55;100400.97;2094791;28;20055;-78
2022/08/02 03:59:15;;;;;;;13.48;5.60;;;;;;;26.69;58.42;100394.25;2092144;28;20045;-77
2022/08/02 04:00:36;;;;;;;9.45;5.05;;;;;;;26.76;58.20;100387.53;2098943;28;20071;-78
2022/08/02 04:01:59;;;;;;;9.20;5.07;;;;;;;26.84;58.13;100395.22;2102796;28;20700;-78
2022/08/02 04:03:22;;;;;;;6.72;4.53;;;;;;;26.94;58.04;100397.31;2102415;28;20063;-78
2022/08/02 04:04:44;;;;;;;10.52;5.57;;;;;;;27.04;57.80;100402.22;2102242;28;20044;-78
2022/08/02 04:06:06;;;;;;;10.70;5.72;;;;;;;27.13;57.33;100398.94;2103089;28;20523;-78
2022/08/02 04:07:28;;;;;;;9.45;5.18;;;;;;;27.22;57.15;100390.28;2102499;28;20048;-78
2022/08/02 04:08:51;;;;;;;8.15;4.75;;;;;;;27.31;56.89;100400.56;2102698;28;20051;-78
2022/08/02 04:10:13;;;;;;;12.52;5.38;;;;;;;27.40;56.54;100394.63;2104441;28;20558;-78
2022/08/02 04:11:36;;;;;;;8.38;4.80;;;;;;;27.49;56.32;100399.50;2101967;28;20040;-77
2022/08/02 04:12:58;;;;;;;8.30;5.00;;;;;;;27.56;56.03;100402.75;2102836;28;20068;-78
2022/08/02 04:14:20;;;;;;;8.18;4.43;;;;;;;27.63;55.90;100407.72;2100056;28;20480;-78
2022/08/02 04:15:42;;;;;;;8.20;4.20;;;;;;;27.71;55.28;100405.38;2102618;28;20050;-77
2022/08/02 04:17:08;;;;;;;6.50;4.05;;;;;;;27.81;54.93;100396.69;2102198;28;20055;-78
2022/08/02 04:18:38;;;;;;;9.57;4.38;;;;;;;27.88;54.51;100403.50;2099298;28;20051;-78
2022/08/02 04:20:05;;;;;;;6.53;4.00;;;;;;;27.97;53.92;100405.63;2102935;28;20068;-78
2022/08/02 04:21:32;;;;;;;7.35;4.20;;;;;;;28.06;53.41;100405.06;2103232;28;20074;-78
2022/08/02 04:23:01;;;;;;;6.97;4.03;;;;;;;28.17;53.01;100398.97;2103460;28;20531;-78
2022/08/02 04:24:30;;;;;;;8.80;3.63;;;;;;;28.31;52.39;100396.25;2105580;28;20040;-77
2022/08/02 04:25:53;;;;;;;8.35;3.97;;;;;;;28.43;52.04;100398.19;2105095;28;20044;-78
2022/08/02 04:27:17;;;;;;;9.10;4.25;;;;;;;28.54;51.40;100399.28;2102779;28;20496;-78
2022/08/02 04:28:40;;;;;;;10.18;4.45;;;;;;;28.66;50.98;100405.75;2103063;28;20119;-78
2022/08/02 04:30:04;;;;;;;7.55;4.07;;;;;;;28.79;50.31;100400.41;2102356;28;20043;-77
2022/08/02 04:31:27;;;;;;;7.72;3.88;;;;;;;28.84;50.04;100390.97;2105212;28;20090;-78
2022/08/02 04:32:49;;;;;;;5.15;3.67;;;;;;;28.91;49.61;100394.16;2104793;28;20549;-78
2022/08/02 04:34:14;;;;;;;10.15;4.68;;;;;;;29.04;49.20;100403.25;2105110;28;20040;-78
2022/08/02 04:35:35;;;;;;;6.38;3.72;;;;;;;29.14;48.95;100398.06;2102911;28;20062;-78
2022/08/02 04:36:58;;;;;;;7.25;3.85;;;;;;;29.25;48.72;100401.81;2102256;28;20040;-78
2022/08/02 04:38:20;;;;;;;7.00;3.72;;;;;;;29.43;48.27;100412.44;2102385;28;20036;-77
2022/08/02 04:39:43;;;;;;;5.90;4.13;;;;;;;29.59;48.09;100403.13;2101654;28;20048;-78
2022/08/02 04:41:04;;;;;;;8.15;3.90;;;;;;;29.70;47.78;100403.25;2096767;28;20090;-78
2022/08/02 04:42:27;;;;;;;7.88;4.55;;;;;;;29.83;47.78;100406.00;2102409;28;20071;-78
2022/08/02 04:43:49;;;;;;;7.78;4.28;;;;;;;29.94;47.24;100405.25;2102535;28;20052;-78
2022/08/02 04:45:11;;;;;;;5.65;3.33;;;;;;;30.06;47.11;100412.59;2102225;28;20036;-77
2022/08/02 04:46:34;;;;;;;7.40;3.38;;;;;;;30.18;46.89;100395.38;2103162;28;20139;-77
2022/08/02 04:47:55;;;;;;;7.80;3.60;;;;;;;30.24;46.48;100403.09;2109116;28;20051;-77
2022/08/02 04:49:19;;;;;;;6.97;3.90;;;;;;;30.35;46.15;100405.91;2105459;28;20157;-77
2022/08/02 04:50:40;;;;;;;6.53;3.50;;;;;;;30.43;46.20;100413.53;2105348;28;20044;-77
2022/08/02 04:52:03;;;;;;;8.07;3.95;;;;;;;30.51;45.95;100407.56;2111110;28;20043;-77
2022/08/02 04:53:25;;;;;;;7.13;4.00;;;;;;;30.64;45.61;100414.75;2104598;28;20067;-77
2022/08/02 04:54:48;;;;;;;10.05;4.50;;;;;;;30.84;45.18;100416.00;2102321;28;20055;-78
2022/08/02 04:56:10;;;;;;;8.13;3.70;;;;;;;31.02;44.96;100416.47;2109039;28;20051;-78
2022/08/02 04:59:13;;;;;;;11.55;4.40;;;;;;;31.27;44.22;100410.94;2096847;28;20048;-78
2022/08/02 05:00:34;;;;;;;6.90;4.15;;;;;;;31.47;44.01;100418.47;2098218;28;20471;-77
2022/08/02 05:01:57;;;;;;;10.18;5.13;;;;;;;31.65;43.44;100422.53;2107224;28;20047;-77
2022/08/02 05:03:18;;;;;;;5.82;3.42;;;;;;;31.73;42.78;100421.94;2101728;28;20044;-77
2022/08/02 05:04:42;;;;;;;10.68;3.53;;;;;;;31.78;42.86;100422.44;2107087;28;20040;-77
2022/08/02 05:06:05;;;;;;;7.53;3.88;;;;;;;31.98;42.30;100423.63;2103423;28;20073;-77
2022/08/02 05:07:26;;;;;;;5.82;3.42;;;;;;;32.16;41.61;100416.75;2100954;28;20105;-77
2022/08/02 05:08:51;;;;;;;7.75;3.85;;;;;;;32.27;41.46;100424.94;2110728;27;20112;-77
2022/08/02 05:10:12;;;;;;;5.38;3.70;;;;;;;32.42;41.05;100421.00;2104984;28;20130;-77
2022/08/02 05:11:34;;;;;;;6.80;4.20;;;;;;;32.60;40.46;100418.63;2104984;28;20050;-77
2022/08/02 05:12:56;;;;;;;7.32;3.90;;;;;;;32.77;40.46;100420.84;2106450;28;20480;-77
2022/08/02 05:14:18;;;;;;;5.03;3.80;;;;;;;32.98;40.08;100425.56;2098308;28;20070;-77
2022/08/02 05:15:41;;;;;;;6.68;3.63;;;;;;;33.19;39.83;100416.47;2103657;28;20040;-77
2022/08/02 05:17:03;;;;;;;5.00;3.60;;;;;;;33.32;39.21;100419.03;2100054;28;20129;-77
2022/08/02 05:18:27;;;;;;;6.80;3.70;;;;;;;33.46;39.21;100426.06;2103121;28;20107;-77
2022/08/02 05:19:50;;;;;;;6.50;3.72;;;;;;;33.70;38.57;100425.81;2099831;28;20044;-77
2022/08/02 05:21:12;;;;;;;7.38;3.67;;;;;;;33.79;38.39;100423.19;2099413;28;20040;-78
2022/08/02 05:22:33;;;;;;;9.20;3.58;;;;;;;33.85;38.06;100416.31;2098150;28;20078;-77
2022/08/02 05:23:56;;;;;;;6.57;3.55;;;;;;;33.92;37.71;100415.66;2103919;28;20043;-77
2022/08/02 05:25:18;;;;;;;7.05;3.90;;;;;;;34.05;37.52;100429.16;2105363;28;20039;-77
2022/08/02 05:26:40;;;;;;;8.10;4.25;;;;;;;34.12;37.24;100427.59;2105537;28;20070;-77
2022/08/02 05:28:03;;;;;;;8.55;3.75;;;;;;;34.24;36.96;100429.28;2104139;28;20044;-77
2022/08/02 05:29:25;;;;;;;6.68;3.33;;;;;;;34.31;36.38;100418.66;2105113;28;20122;-77
2022/08/02 05:30:48;;;;;;;5.53;3.80;;;;;;;34.30;36.54;100420.53;2108348;28;20543;-77
2022/08/02 05:32:10;;;;;;;5.82;3.45;;;;;;;34.36;36.17;100430.94;2106177;28;20035;-77
2022/08/02 05:33:33;;;;;;;5.43;3.53;;;;;;;34.31;36.11;100430.50;2099989;28;20645;-77
2022/08/02 05:34:55;;;;;;;5.28;3.53;;;;;;;34.44;36.03;100430.25;2109096;28;20515;-77
2022/08/02 05:36:18;;;;;;;6.03;3.15;;;;;;;34.62;35.95;100425.84;2102632;28;20044;-77
2022/08/02 05:37:39;;;;;;;6.78;3.78;;;;;;;34.85;35.53;100436.66;2099425;28;20057;-76
2022/08/02 05:39:03;;;;;;;6.25;3.80;;;;;;;34.98;35.39;100423.56;2099922;28;20193;-77
2022/08/02 05:40:25;;;;;;;10.38;4.15;;;;;;;35.11;35.11;100419.53;2101556;28;20519;-78
2022/08/02 05:41:46;;;;;;;5.35;3.40;;;;;;;35.33;35.04;100418.44;2110770;27;20140;-77
2022/08/02 05:43:13;;;;;;;4.82;3.45;;;;;;;35.39;34.82;100425.22;2096007;28;20059;-78
2022/08/02 05:44:35;;;;;;;4.80;3.50;;;;;;;35.39;34.79;100437.06;2101863;28;20047;-77
2022/08/02 05:45:58;;;;;;;6.18;3.63;;;;;;;35.39;34.53;100427.97;2110306;27;20055;-76
2022/08/02 05:47:22;;;;;;;4.93;3.80;;;;;;;35.33;34.50;100418.44;2105509;28;20454;-77
2022/08/02 05:48:45;;;;;;;6.05;3.38;;;;;;;35.30;34.26;100435.22;2095791;28;20036;-77
2022/08/02 05:50:10;;;;;;;8.00;3.80;;;;;;;35.27;34.41;100430.00;2094532;28;20487;-76
2022/08/02 05:51:37;;;;;;;4.40;3.08;;;;;;;35.25;34.34;100426.50;2105377;28;20535;-76
2022/08/02 05:53:08;;;;;;;9.02;3.92;;;;;;;35.31;34.27;100433.34;2095795;28;20057;-76
2022/08/02 05:54:38;;;;;;;6.80;3.50;;;;;;;35.41;34.01;100425.97;2105038;28;20495;-76
2022/08/02 05:56:10;;;;;;;7.03;3.20;;;;;;;35.40;34.05;100433.31;2107235;28;20047;-76
2022/08/02 05:57:41;;;;;;;6.82;3.65;;;;;;;35.40;33.99;100438.81;2108877;28;20130;-77
2022/08/02 05:59:04;;;;;;;4.78;3.45;;;;;;;35.37;34.27;100433.63;2105960;28;20588;-76
2022/08/02 06:00:31;;;;;;;5.43;3.38;;;;;;;35.38;34.13;100438.09;2108193;28;20051;-76
2022/08/02 06:01:57;;;;;;;5.85;3.65;;;;;;;35.44;33.98;100432.03;2095430;28;20770;-78
2022/08/02 06:03:25;;;;;;;5.88;3.33;;;;;;;35.55;33.78;100440.13;2104312;28;20058;-77
2022/08/02 06:04:58;;;;;;;6.88;4.10;;;;;;;35.40;33.90;100438.81;2106984;28;20044;-77
2022/08/02 06:06:25;;;;;;;5.13;3.33;;;;;;;35.44;34.10;100428.44;2107024;28;20144;-75
2022/08/02 06:07:48;;;;;;;4.97;3.38;;;;;;;35.52;33.96;100434.91;2107176;28;20047;-75
2022/08/02 06:09:15;;;;;;;8.15;3.50;;;;;;;35.49;34.06;100435.22;2103792;28;20044;-76
2022/08/02 06:10:40;;;;;;;5.95;4.03;;;;;;;35.58;34.15;100439.84;2097390;28;20045;-76
2022/08/02 06:12:04;;;;;;;6.55;3.60;;;;;;;35.58;34.63;100424.38;2094816;28;20036;-76
2022/08/02 06:13:28;;;;;;;7.20;3.75;;;;;;;35.57;34.40;100423.50;2103352;28;20052;-77
2022/08/02 06:14:52;;;;;;;5.07;3.38;;;;;;;35.45;34.20;100430.13;2102169;28;20044;-78
2022/08/02 06:16:16;;;;;;;5.28;3.67;;;;;;;35.21;34.66;100436.06;2103329;28;20088;-77
2022/08/02 06:17:41;;;;;;;6.90;3.92;;;;;;;35.23;34.27;100425.81;2107491;28;20928;-77
2022/08/02 06:19:04;;;;;;;7.18;3.50;;;;;;;35.29;33.99;100435.34;2105115;28;20062;-77
2022/08/02 06:20:27;;;;;;;4.78;3.65;;;;;;;35.19;33.86;100427.91;2110051;28;20036;-78
2022/08/02 06:21:52;;;;;;;5.15;3.53;;;;;;;35.07;34.13;100433.69;2096055;28;20056;-78
2022/08/02 06:23:16;;;;;;;6.43;3.33;;;;;;;35.03;34.11;100427.63;2098598;28;20131;-77
2022/08/02 06:24:39;;;;;;;6.97;3.60;;;;;;;35.00;34.08;100440.72;2100829;28;20808;-77
2022/08/02 06:26:03;;;;;;;5.68;3.47;;;;;;;35.03;34.17;100430.34;2101944;28;20151;-77
2022/08/02 06:27:28;;;;;;;4.82;3.45;;;;;;;35.15;33.96;100437.47;2110571;28;20056;-77
2022/08/02 06:28:53;;;;;;;7.20;3.40;;;;;;;35.17;34.03;100440.06;2111552;28;20048;-77
2022/08/02 06:30:15;;;;;;;4.88;3.30;;;;;;;35.40;33.67;100441.56;2105301;28;20589;-78
2022/08/02 06:31:38;;;;;;;5.00;3.60;;;;;;;35.58;33.28;100438.13;2110915;28;20125;-78
2022/08/02 06:33:01;;;;;;;5.50;3.35;;;;;;;35.60;33.04;100431.44;2112676;28;20055;-78
2022/08/02 06:34:22;;;;;;;5.60;3.25;;;;;;;35.55;32.74;100442.88;2096463;28;20158;-79